sensor_id;sensor_type;location;lat;lon;timestamp;temperature;humidity
3976;DHT22;2002;48.812;9.180;2023-07-20T00:00:02;22.60;99.90
3976;DHT22;2002;48.812;9.180;2023-07-20T00:02:27;22.60;99.90
3976;DHT22;2002;48.812;9.180;2023-07-20T00:04:53;22.50;99.90
3976;DHT22;2002;48.812;9.180;2023-07-20T00:07:18;22.50;99.90
3976;DHT22;2002;48.812;9.180;2023-07-20T00:09:44;22.60;99.90
3976;DHT22;2002;48.812;9.180;2023-07-20T00:12:09;22.60;99.90
3976;DHT22;2002;48.812;9.180;2023-07-20T00:14:35;22.60;99.90
3976;DHT22;2002;48.812;9.180;2023-07-20T00:17:02;22.50;99.90
3976;DHT22;2002;48.812;9.180;2023-07-20T00:19:28;22.50;99.90
3976;DHT22;2002;48.812;9.180;2023-07-20T00:21:54;22.50;99.90
3976;DHT22;2002;48.812;9.180;2023-07-20T00:24:20;22.50;99.90
3976;DHT22;2002;48.812;9.180;2023-07-20T00:26:45;22.60;99.90
3976;DHT22;2002;48.812;9.180;2023-07-20T00:29:11;22.60;99.90
3976;DHT22;2002;48.812;9.180;2023-07-20T00:31:37;22.60;99.90
3976;DHT22;2002;48.812;9.180;2023-07-20T00:34:03;22.50;99.90
3976;DHT22;2002;48.812;9.180;2023-07-20T00:36:29;22.50;99.90
3976;DHT22;2002;48.812;9.180;2023-07-20T00:38:55;22.50;99.90
3976;DHT22;2002;48.812;9.180;2023-07-20T00:41:20;22.60;99.90
3976;DHT22;2002;48.812;9.180;2023-07-20T00:43:46;22.60;99.90
3976;DHT22;2002;48.812;9.180;2023-07-20T00:46:11;22.60;99.90
3976;DHT22;2002;48.812;9.180;2023-07-20T00:48:37;22.50;99.90
3976;DHT22;2002;48.812;9.180;2023-07-20T00:51:03;22.50;99.90
3976;DHT22;2002;48.812;9.180;2023-07-20T00:53:29;22.50;99.90
3976;DHT22;2002;48.812;9.180;2023-07-20T00:55:55;22.50;99.90
3976;DHT22;2002;48.812;9.180;2023-07-20T00:58:22;22.60;99.90
3976;DHT22;2002;48.812;9.180;2023-07-20T01:00:47;22.60;99.90
3976;DHT22;2002;48.812;9.180;2023-07-20T01:03:13;22.60;99.90
3976;DHT22;2002;48.812;9.180;2023-07-20T01:05:54;22.50;99.90
3976;DHT22;2002;48.812;9.180;2023-07-20T01:08:53;22.50;99.90
3976;DHT22;2002;48.812;9.180;2023-07-20T01:14:06;22.50;99.90
3976;DHT22;2002;48.812;9.180;2023-07-20T01:16:33;22.60;99.90
3976;DHT22;2002;48.812;9.180;2023-07-20T01:18:58;22.50;99.90
3976;DHT22;2002;48.812;9.180;2023-07-20T01:22:28;22.50;99.90
3976;DHT22;2002;48.812;9.180;2023-07-20T01:24:39;22.50;99.90
3976;DHT22;2002;48.812;9.180;2023-07-20T01:27:36;22.50;99.90
3976;DHT22;2002;48.812;9.180;2023-07-20T01:30:27;22.60;99.90
3976;DHT22;2002;48.812;9.180;2023-07-20T01:32:58;22.60;99.90
3976;DHT22;2002;48.812;9.180;2023-07-20T01:35:27;22.50;99.90
3976;DHT22;2002;48.812;9.180;2023-07-20T01:37:54;22.50;99.90
3976;DHT22;2002;48.812;9.180;2023-07-20T01:40:20;22.50;99.90
3976;DHT22;2002;48.812;9.180;2023-07-20T01:42:47;22.50;99.90
3976;DHT22;2002;48.812;9.180;2023-07-20T01:45:13;22.60;99.90
3976;DHT22;2002;48.812;9.180;2023-07-20T01:47:39;22.60;99.90
3976;DHT22;2002;48.812;9.180;2023-07-20T01:50:06;22.40;99.90
3976;DHT22;2002;48.812;9.180;2023-07-20T01:52:31;22.40;99.90
3976;DHT22;2002;48.812;9.180;2023-07-20T01:54:57;22.50;99.90
3976;DHT22;2002;48.812;9.180;2023-07-20T01:57:23;22.50;99.90
3976;DHT22;2002;48.812;9.180;2023-07-20T01:59:48;22.50;99.90
3976;DHT22;2002;48.812;9.180;2023-07-20T02:02:14;22.50;99.90
3976;DHT22;2002;48.812;9.180;2023-07-20T02:04:39;22.60;99.90
3976;DHT22;2002;48.812;9.180;2023-07-20T02:07:05;22.60;99.90
3976;DHT22;2002;48.812;9.180;2023-07-20T02:09:31;22.50;99.90
3976;DHT22;2002;48.812;9.180;2023-07-20T02:11:56;22.50;99.90
3976;DHT22;2002;48.812;9.180;2023-07-20T02:14:22;22.50;99.90
3976;DHT22;2002;48.812;9.180;2023-07-20T02:16:48;22.50;99.90
3976;DHT22;2002;48.812;9.180;2023-07-20T02:19:18;22.50;99.90
3976;DHT22;2002;48.812;9.180;2023-07-20T02:21:44;22.40;99.90
3976;DHT22;2002;48.812;9.180;2023-07-20T02:24:10;22.40;99.90
3976;DHT22;2002;48.812;9.180;2023-07-20T02:26:35;22.50;99.90
3976;DHT22;2002;48.812;9.180;2023-07-20T02:29:01;22.50;99.90
3976;DHT22;2002;48.812;9.180;2023-07-20T02:31:30;22.50;99.90
3976;DHT22;2002;48.812;9.180;2023-07-20T02:33:55;22.60;99.90
3976;DHT22;2002;48.812;9.180;2023-07-20T02:36:21;22.50;99.90
3976;DHT22;2002;48.812;9.180;2023-07-20T02:38:46;22.40;99.90
3976;DHT22;2002;48.812;9.180;2023-07-20T02:41:13;22.50;99.90
3976;DHT22;2002;48.812;9.180;2023-07-20T02:43:39;22.50;99.90
3976;DHT22;2002;48.812;9.180;2023-07-20T02:46:04;22.50;99.90
3976;DHT22;2002;48.812;9.180;2023-07-20T02:48:30;22.50;99.90
3976;DHT22;2002;48.812;9.180;2023-07-20T02:50:55;22.50;99.90
3976;DHT22;2002;48.812;9.180;2023-07-20T02:53:21;22.40;99.90
3976;DHT22;2002;48.812;9.180;2023-07-20T02:55:46;22.50;99.90
3976;DHT22;2002;48.812;9.180;2023-07-20T02:58:12;22.50;99.90
3976;DHT22;2002;48.812;9.180;2023-07-20T03:00:38;22.50;99.90
3976;DHT22;2002;48.812;9.180;2023-07-20T03:03:03;22.50;99.90
3976;DHT22;2002;48.812;9.180;2023-07-20T03:05:29;22.50;99.90
3976;DHT22;2002;48.812;9.180;2023-07-20T03:07:55;22.40;99.90
3976;DHT22;2002;48.812;9.180;2023-07-20T03:10:21;22.40;99.90
3976;DHT22;2002;48.812;9.180;2023-07-20T03:12:46;22.50;99.90
3976;DHT22;2002;48.812;9.180;2023-07-20T03:15:12;22.50;99.90
3976;DHT22;2002;48.812;9.180;2023-07-20T03:17:37;22.50;99.90
3976;DHT22;2002;48.812;9.180;2023-07-20T03:20:03;22.50;99.90
3976;DHT22;2002;48.812;9.180;2023-07-20T03:22:30;22.50;99.90
3976;DHT22;2002;48.812;9.180;2023-07-20T03:24:56;22.50;99.90
3976;DHT22;2002;48.812;9.180;2023-07-20T03:27:21;22.40;99.90
3976;DHT22;2002;48.812;9.180;2023-07-20T03:29:47;22.40;99.90
3976;DHT22;2002;48.812;9.180;2023-07-20T03:32:12;22.40;99.90
3976;DHT22;2002;48.812;9.180;2023-07-20T03:34:38;22.50;99.90
3976;DHT22;2002;48.812;9.180;2023-07-20T03:37:03;22.50;99.90
3976;DHT22;2002;48.812;9.180;2023-07-20T03:39:30;22.50;99.90
3976;DHT22;2002;48.812;9.180;2023-07-20T03:41:55;22.50;99.90
3976;DHT22;2002;48.812;9.180;2023-07-20T03:44:22;22.50;99.90
3976;DHT22;2002;48.812;9.180;2023-07-20T03:46:48;22.50;99.90
3976;DHT22;2002;48.812;9.180;2023-07-20T03:49:13;22.50;99.90
3976;DHT22;2002;48.812;9.180;2023-07-20T03:51:39;22.40;99.90
3976;DHT22;2002;48.812;9.180;2023-07-20T03:54:08;22.40;99.90
3976;DHT22;2002;48.812;9.180;2023-07-20T03:56:36;22.50;99.90
3976;DHT22;2002;48.812;9.180;2023-07-20T03:59:02;22.50;99.90
3976;DHT22;2002;48.812;9.180;2023-07-20T04:01:27;22.50;99.90
3976;DHT22;2002;48.812;9.180;2023-07-20T04:03:53;22.50;99.90
3976;DHT22;2002;48.812;9.180;2023-07-20T04:06:19;22.50;99.90
3976;DHT22;2002;48.812;9.180;2023-07-20T04:08:44;22.50;99.90
3976;DHT22;2002;48.812;9.180;2023-07-20T04:11:12;22.50;99.90
3976;DHT22;2002;48.812;9.180;2023-07-20T04:13:38;22.40;99.90
3976;DHT22;2002;48.812;9.180;2023-07-20T04:16:03;22.40;99.90
3976;DHT22;2002;48.812;9.180;2023-07-20T04:18:29;22.50;99.90
3976;DHT22;2002;48.812;9.180;2023-07-20T04:20:55;22.50;99.90
3976;DHT22;2002;48.812;9.180;2023-07-20T04:23:20;22.50;99.90
3976;DHT22;2002;48.812;9.180;2023-07-20T04:25:46;22.50;99.90
3976;DHT22;2002;48.812;9.180;2023-07-20T04:28:11;22.50;99.90
3976;DHT22;2002;48.812;9.180;2023-07-20T04:30:37;22.50;99.90
3976;DHT22;2002;48.812;9.180;2023-07-20T04:33:04;22.40;99.90
3976;DHT22;2002;48.812;9.180;2023-07-20T04:35:49;22.40;99.90
3976;DHT22;2002;48.812;9.180;2023-07-20T04:38:15;22.50;99.90
3976;DHT22;2002;48.812;9.180;2023-07-20T04:40:43;22.50;99.90
3976;DHT22;2002;48.812;9.180;2023-07-20T04:43:09;22.50;99.90
3976;DHT22;2002;48.812;9.180;2023-07-20T04:45:35;22.50;99.90
3976;DHT22;2002;48.812;9.180;2023-07-20T04:48:00;22.50;99.90
3976;DHT22;2002;48.812;9.180;2023-07-20T04:50:26;22.40;99.90
3976;DHT22;2002;48.812;9.180;2023-07-20T04:52:51;22.40;99.90
3976;DHT22;2002;48.812;9.180;2023-07-20T04:55:17;22.40;99.90
3976;DHT22;2002;48.812;9.180;2023-07-20T04:57:43;22.40;99.90
3976;DHT22;2002;48.812;9.180;2023-07-20T05:00:09;22.50;99.90
3976;DHT22;2002;48.812;9.180;2023-07-20T05:02:38;22.50;99.90
3976;DHT22;2002;48.812;9.180;2023-07-20T05:05:04;22.50;99.90
3976;DHT22;2002;48.812;9.180;2023-07-20T05:07:31;22.50;99.90
3976;DHT22;2002;48.812;9.180;2023-07-20T05:09:57;22.50;99.90
3976;DHT22;2002;48.812;9.180;2023-07-20T05:12:23;22.30;99.90
3976;DHT22;2002;48.812;9.180;2023-07-20T05:14:48;22.20;99.90
3976;DHT22;2002;48.812;9.180;2023-07-20T05:17:14;22.30;99.90
3976;DHT22;2002;48.812;9.180;2023-07-20T05:19:39;22.30;99.90
3976;DHT22;2002;48.812;9.180;2023-07-20T05:22:05;22.30;99.90
3976;DHT22;2002;48.812;9.180;2023-07-20T05:24:31;22.30;99.90
3976;DHT22;2002;48.812;9.180;2023-07-20T05:26:57;22.30;99.90
3976;DHT22;2002;48.812;9.180;2023-07-20T05:29:23;22.40;99.90
3976;DHT22;2002;48.812;9.180;2023-07-20T05:31:48;22.40;99.90
3976;DHT22;2002;48.812;9.180;2023-07-20T05:34:14;22.40;99.90
3976;DHT22;2002;48.812;9.180;2023-07-20T05:36:39;22.20;99.90
3976;DHT22;2002;48.812;9.180;2023-07-20T05:39:05;22.10;99.90
3976;DHT22;2002;48.812;9.180;2023-07-20T05:41:30;22.20;99.90
3976;DHT22;2002;48.812;9.180;2023-07-20T05:43:56;22.20;99.90
3976;DHT22;2002;48.812;9.180;2023-07-20T05:46:21;22.30;99.90
3976;DHT22;2002;48.812;9.180;2023-07-20T05:48:47;22.30;99.90
3976;DHT22;2002;48.812;9.180;2023-07-20T05:51:12;22.30;99.90
3976;DHT22;2002;48.812;9.180;2023-07-20T05:53:38;22.30;99.90
3976;DHT22;2002;48.812;9.180;2023-07-20T05:56:04;22.30;99.90
3976;DHT22;2002;48.812;9.180;2023-07-20T05:58:29;22.10;99.90
3976;DHT22;2002;48.812;9.180;2023-07-20T06:00:55;22.20;99.90
3976;DHT22;2002;48.812;9.180;2023-07-20T06:03:20;22.20;99.90
3976;DHT22;2002;48.812;9.180;2023-07-20T06:05:49;22.30;99.90
3976;DHT22;2002;48.812;9.180;2023-07-20T06:08:14;22.30;99.90
3976;DHT22;2002;48.812;9.180;2023-07-20T06:10:40;22.30;99.90
3976;DHT22;2002;48.812;9.180;2023-07-20T06:13:05;22.30;99.90
3976;DHT22;2002;48.812;9.180;2023-07-20T06:15:32;22.30;99.90
3976;DHT22;2002;48.812;9.180;2023-07-20T06:18:00;22.30;99.90
3976;DHT22;2002;48.812;9.180;2023-07-20T06:20:26;22.20;99.90
3976;DHT22;2002;48.812;9.180;2023-07-20T06:22:52;22.20;99.90
3976;DHT22;2002;48.812;9.180;2023-07-20T06:25:18;22.20;99.90
3976;DHT22;2002;48.812;9.180;2023-07-20T06:27:43;22.20;99.90
3976;DHT22;2002;48.812;9.180;2023-07-20T06:30:10;22.20;99.90
3976;DHT22;2002;48.812;9.180;2023-07-20T06:32:35;22.30;99.90
3976;DHT22;2002;48.812;9.180;2023-07-20T06:35:01;22.30;99.90
3976;DHT22;2002;48.812;9.180;2023-07-20T06:37:27;22.30;99.90
3976;DHT22;2002;48.812;9.180;2023-07-20T06:39:52;22.40;99.90
3976;DHT22;2002;48.812;9.180;2023-07-20T06:42:18;22.20;99.20
3976;DHT22;2002;48.812;9.180;2023-07-20T06:44:43;22.30;98.00
3976;DHT22;2002;48.812;9.180;2023-07-20T06:47:09;22.30;99.90
3976;DHT22;2002;48.812;9.180;2023-07-20T06:49:34;22.30;99.80
3976;DHT22;2002;48.812;9.180;2023-07-20T06:51:59;22.40;99.90
3976;DHT22;2002;48.812;9.180;2023-07-20T06:54:25;22.40;99.90
3976;DHT22;2002;48.812;9.180;2023-07-20T06:56:51;22.40;99.90
3976;DHT22;2002;48.812;9.180;2023-07-20T06:59:17;22.30;93.70
3976;DHT22;2002;48.812;9.180;2023-07-20T07:01:42;22.30;96.80
3976;DHT22;2002;48.812;9.180;2023-07-20T07:04:08;22.30;99.90
3976;DHT22;2002;48.812;9.180;2023-07-20T07:06:34;22.30;99.80
3976;DHT22;2002;48.812;9.180;2023-07-20T07:09:02;22.40;99.90
3976;DHT22;2002;48.812;9.180;2023-07-20T07:11:28;22.40;98.90
3976;DHT22;2002;48.812;9.180;2023-07-20T07:13:54;22.40;96.80
3976;DHT22;2002;48.812;9.180;2023-07-20T07:16:20;22.40;99.10
3976;DHT22;2002;48.812;9.180;2023-07-20T07:18:46;22.40;97.20
3976;DHT22;2002;48.812;9.180;2023-07-20T07:21:11;22.40;89.00
3976;DHT22;2002;48.812;9.180;2023-07-20T07:23:38;22.30;87.50
3976;DHT22;2002;48.812;9.180;2023-07-20T07:26:04;22.30;91.30
3976;DHT22;2002;48.812;9.180;2023-07-20T07:28:29;22.40;92.20
3976;DHT22;2002;48.812;9.180;2023-07-20T07:30:55;22.30;94.00
3976;DHT22;2002;48.812;9.180;2023-07-20T07:33:22;22.40;92.10
3976;DHT22;2002;48.812;9.180;2023-07-20T07:35:50;22.40;92.50
3976;DHT22;2002;48.812;9.180;2023-07-20T07:38:17;22.40;92.40
3976;DHT22;2002;48.812;9.180;2023-07-20T07:40:42;22.40;92.70
3976;DHT22;2002;48.812;9.180;2023-07-20T07:43:08;22.30;87.00
3976;DHT22;2002;48.812;9.180;2023-07-20T07:45:35;22.40;94.40
3976;DHT22;2002;48.812;9.180;2023-07-20T07:48:04;22.30;92.70
3976;DHT22;2002;48.812;9.180;2023-07-20T07:50:31;22.40;90.10
3976;DHT22;2002;48.812;9.180;2023-07-20T07:52:56;22.40;89.20
3976;DHT22;2002;48.812;9.180;2023-07-20T07:55:22;22.40;95.10
3976;DHT22;2002;48.812;9.180;2023-07-20T07:57:47;22.30;85.10
3976;DHT22;2002;48.812;9.180;2023-07-20T08:00:14;22.40;86.50
3976;DHT22;2002;48.812;9.180;2023-07-20T08:02:43;22.40;88.00
3976;DHT22;2002;48.812;9.180;2023-07-20T08:05:09;22.40;86.90
3976;DHT22;2002;48.812;9.180;2023-07-20T08:07:35;22.40;87.50
3976;DHT22;2002;48.812;9.180;2023-07-20T08:10:00;22.50;84.80
3976;DHT22;2002;48.812;9.180;2023-07-20T08:12:26;22.50;88.00
3976;DHT22;2002;48.812;9.180;2023-07-20T08:14:52;22.50;84.80
3976;DHT22;2002;48.812;9.180;2023-07-20T08:17:17;22.30;78.90
3976;DHT22;2002;48.812;9.180;2023-07-20T08:19:43;22.40;76.90
3976;DHT22;2002;48.812;9.180;2023-07-20T08:22:09;22.40;78.60
3976;DHT22;2002;48.812;9.180;2023-07-20T08:24:39;22.50;89.10
3976;DHT22;2002;48.812;9.180;2023-07-20T08:27:05;22.50;80.40
3976;DHT22;2002;48.812;9.180;2023-07-20T08:29:31;22.50;85.50
3976;DHT22;2002;48.812;9.180;2023-07-20T08:31:56;22.50;80.60
3976;DHT22;2002;48.812;9.180;2023-07-20T08:34:22;22.50;75.00
3976;DHT22;2002;48.812;9.180;2023-07-20T08:36:47;22.50;76.60
3976;DHT22;2002;48.812;9.180;2023-07-20T08:39:13;22.50;82.40
3976;DHT22;2002;48.812;9.180;2023-07-20T08:41:38;22.50;82.90
3976;DHT22;2002;48.812;9.180;2023-07-20T08:44:04;22.50;78.20
3976;DHT22;2002;48.812;9.180;2023-07-20T08:46:31;22.40;83.20
3976;DHT22;2002;48.812;9.180;2023-07-20T08:48:57;22.50;79.90
3976;DHT22;2002;48.812;9.180;2023-07-20T08:51:23;22.50;82.50
3976;DHT22;2002;48.812;9.180;2023-07-20T08:53:51;22.60;77.50
3976;DHT22;2002;48.812;9.180;2023-07-20T08:56:18;22.60;76.30
3976;DHT22;2002;48.812;9.180;2023-07-20T08:58:45;22.50;70.80
3976;DHT22;2002;48.812;9.180;2023-07-20T09:01:11;22.50;72.20
3976;DHT22;2002;48.812;9.180;2023-07-20T09:03:38;22.50;77.60
3976;DHT22;2002;48.812;9.180;2023-07-20T09:06:05;22.60;74.20
3976;DHT22;2002;48.812;9.180;2023-07-20T09:08:31;22.60;71.60
3976;DHT22;2002;48.812;9.180;2023-07-20T09:10:56;22.60;70.40
3976;DHT22;2002;48.812;9.180;2023-07-20T09:13:22;22.50;68.80
3976;DHT22;2002;48.812;9.180;2023-07-20T09:15:58;22.50;69.20
3976;DHT22;2002;48.812;9.180;2023-07-20T09:18:29;22.50;71.60
3976;DHT22;2002;48.812;9.180;2023-07-20T09:21:02;22.50;73.80
3976;DHT22;2002;48.812;9.180;2023-07-20T09:23:35;22.50;99.20
3976;DHT22;2002;48.812;9.180;2023-07-20T09:26:10;22.50;70.70
3976;DHT22;2002;48.812;9.180;2023-07-20T09:29:05;22.50;67.40
3976;DHT22;2002;48.812;9.180;2023-07-20T09:31:32;22.60;70.30
3976;DHT22;2002;48.812;9.180;2023-07-20T09:33:58;22.70;67.10
3976;DHT22;2002;48.812;9.180;2023-07-20T09:36:26;22.60;64.90
3976;DHT22;2002;48.812;9.180;2023-07-20T09:38:52;22.60;65.60
3976;DHT22;2002;48.812;9.180;2023-07-20T09:41:18;22.60;63.80
3976;DHT22;2002;48.812;9.180;2023-07-20T09:43:45;22.70;68.30
3976;DHT22;2002;48.812;9.180;2023-07-20T09:46:10;22.50;68.30
3976;DHT22;2002;48.812;9.180;2023-07-20T09:48:36;22.70;69.40
3976;DHT22;2002;48.812;9.180;2023-07-20T09:51:02;22.70;64.90
3976;DHT22;2002;48.812;9.180;2023-07-20T09:53:28;22.60;65.90
3976;DHT22;2002;48.812;9.180;2023-07-20T09:55:55;22.50;66.10
3976;DHT22;2002;48.812;9.180;2023-07-20T09:58:21;22.60;67.40
3976;DHT22;2002;48.812;9.180;2023-07-20T10:00:48;22.50;65.90
3976;DHT22;2002;48.812;9.180;2023-07-20T10:03:19;22.50;90.00
3976;DHT22;2002;48.812;9.180;2023-07-20T10:06:06;22.50;69.00
3976;DHT22;2002;48.812;9.180;2023-07-20T10:08:38;22.50;66.80
3976;DHT22;2002;48.812;9.180;2023-07-20T10:11:08;22.40;64.60
3976;DHT22;2002;48.812;9.180;2023-07-20T10:13:38;22.50;68.50
3976;DHT22;2002;48.812;9.180;2023-07-20T10:16:10;22.50;65.60
3976;DHT22;2002;48.812;9.180;2023-07-20T10:18:46;22.40;67.10
3976;DHT22;2002;48.812;9.180;2023-07-20T10:21:16;22.40;63.10
3976;DHT22;2002;48.812;9.180;2023-07-20T10:23:42;22.50;67.30
3976;DHT22;2002;48.812;9.180;2023-07-20T10:26:08;22.40;63.90
3976;DHT22;2002;48.812;9.180;2023-07-20T10:28:34;22.50;62.80
3976;DHT22;2002;48.812;9.180;2023-07-20T10:30:59;22.50;64.50
3976;DHT22;2002;48.812;9.180;2023-07-20T10:33:25;22.40;64.60
3976;DHT22;2002;48.812;9.180;2023-07-20T10:38:17;22.50;65.20
3976;DHT22;2002;48.812;9.180;2023-07-20T10:40:54;22.50;61.30
3976;DHT22;2002;48.812;9.180;2023-07-20T10:43:20;22.40;62.60
3976;DHT22;2002;48.812;9.180;2023-07-20T10:45:52;22.40;61.30
3976;DHT22;2002;48.812;9.180;2023-07-20T10:48:23;22.50;62.60
3976;DHT22;2002;48.812;9.180;2023-07-20T10:51:08;22.40;59.20
3976;DHT22;2002;48.812;9.180;2023-07-20T10:53:34;22.30;61.10
3976;DHT22;2002;48.812;9.180;2023-07-20T10:56:06;22.40;63.30
3976;DHT22;2002;48.812;9.180;2023-07-20T10:58:33;22.40;60.90
3976;DHT22;2002;48.812;9.180;2023-07-20T11:01:04;22.40;63.00
3976;DHT22;2002;48.812;9.180;2023-07-20T11:03:33;22.40;64.50
3976;DHT22;2002;48.812;9.180;2023-07-20T11:05:59;22.50;61.30
3976;DHT22;2002;48.812;9.180;2023-07-20T11:08:43;22.40;61.80
3976;DHT22;2002;48.812;9.180;2023-07-20T11:11:23;22.40;68.00
3976;DHT22;2002;48.812;9.180;2023-07-20T11:14:05;22.40;61.20
3976;DHT22;2002;48.812;9.180;2023-07-20T11:16:42;22.50;59.80
3976;DHT22;2002;48.812;9.180;2023-07-20T11:21:49;22.40;58.80
3976;DHT22;2002;48.812;9.180;2023-07-20T11:24:15;22.50;58.50
3976;DHT22;2002;48.812;9.180;2023-07-20T11:26:42;22.40;59.90
3976;DHT22;2002;48.812;9.180;2023-07-20T11:29:08;22.40;57.20
3976;DHT22;2002;48.812;9.180;2023-07-20T11:31:38;22.40;58.10
3976;DHT22;2002;48.812;9.180;2023-07-20T11:34:04;22.40;57.20
3976;DHT22;2002;48.812;9.180;2023-07-20T11:36:30;22.30;54.60
3976;DHT22;2002;48.812;9.180;2023-07-20T11:38:56;22.30;59.30
3976;DHT22;2002;48.812;9.180;2023-07-20T11:41:22;22.40;56.50
3976;DHT22;2002;48.812;9.180;2023-07-20T11:43:47;22.40;56.40
3976;DHT22;2002;48.812;9.180;2023-07-20T11:46:13;22.30;84.40
3976;DHT22;2002;48.812;9.180;2023-07-20T11:48:39;22.40;56.10
3976;DHT22;2002;48.812;9.180;2023-07-20T11:51:05;22.50;54.60
3976;DHT22;2002;48.812;9.180;2023-07-20T11:53:32;22.50;50.60
3976;DHT22;2002;48.812;9.180;2023-07-20T11:56:01;22.40;51.20
3976;DHT22;2002;48.812;9.180;2023-07-20T11:58:27;22.30;55.70
3976;DHT22;2002;48.812;9.180;2023-07-20T12:00:55;22.40;52.60
3976;DHT22;2002;48.812;9.180;2023-07-20T12:03:21;22.40;50.60
3976;DHT22;2002;48.812;9.180;2023-07-20T12:05:46;22.40;50.60
3976;DHT22;2002;48.812;9.180;2023-07-20T12:08:12;22.30;50.10
3976;DHT22;2002;48.812;9.180;2023-07-20T12:10:39;22.30;46.70
3976;DHT22;2002;48.812;9.180;2023-07-20T12:13:10;22.30;48.20
3976;DHT22;2002;48.812;9.180;2023-07-20T12:15:37;22.40;47.40
3976;DHT22;2002;48.812;9.180;2023-07-20T12:18:03;22.40;45.30
3976;DHT22;2002;48.812;9.180;2023-07-20T12:20:34;22.40;46.90
3976;DHT22;2002;48.812;9.180;2023-07-20T12:23:05;22.40;47.70
3976;DHT22;2002;48.812;9.180;2023-07-20T12:25:41;22.50;47.00
3976;DHT22;2002;48.812;9.180;2023-07-20T12:28:12;22.50;44.20
3976;DHT22;2002;48.812;9.180;2023-07-20T12:30:40;22.40;47.10
3976;DHT22;2002;48.812;9.180;2023-07-20T12:33:06;22.40;48.00
3976;DHT22;2002;48.812;9.180;2023-07-20T12:35:32;22.30;74.40
3976;DHT22;2002;48.812;9.180;2023-07-20T12:37:57;22.40;47.10
3976;DHT22;2002;48.812;9.180;2023-07-20T12:40:23;22.50;44.40
3976;DHT22;2002;48.812;9.180;2023-07-20T12:42:49;22.40;45.30
3976;DHT22;2002;48.812;9.180;2023-07-20T12:45:15;22.40;68.60
3976;DHT22;2002;48.812;9.180;2023-07-20T12:47:41;22.40;45.20
3976;DHT22;2002;48.812;9.180;2023-07-20T12:50:08;22.50;44.70
3976;DHT22;2002;48.812;9.180;2023-07-20T12:52:38;22.50;41.50
3976;DHT22;2002;48.812;9.180;2023-07-20T12:55:05;22.40;45.00
3976;DHT22;2002;48.812;9.180;2023-07-20T12:57:31;22.30;42.50
3976;DHT22;2002;48.812;9.180;2023-07-20T12:59:57;22.40;46.80
3976;DHT22;2002;48.812;9.180;2023-07-20T13:02:23;22.40;43.80
3976;DHT22;2002;48.812;9.180;2023-07-20T13:04:48;22.40;43.80
3976;DHT22;2002;48.812;9.180;2023-07-20T13:07:14;22.30;44.90
3976;DHT22;2002;48.812;9.180;2023-07-20T13:09:39;22.40;43.40
3976;DHT22;2002;48.812;9.180;2023-07-20T13:12:05;22.50;45.80
3976;DHT22;2002;48.812;9.180;2023-07-20T13:14:31;22.50;44.60
3976;DHT22;2002;48.812;9.180;2023-07-20T13:16:56;22.50;40.50
3976;DHT22;2002;48.812;9.180;2023-07-20T13:19:22;22.40;42.10
3976;DHT22;2002;48.812;9.180;2023-07-20T13:21:48;22.50;42.50
3976;DHT22;2002;48.812;9.180;2023-07-20T13:24:13;22.50;43.70
3976;DHT22;2002;48.812;9.180;2023-07-20T13:26:39;22.50;38.30
3976;DHT22;2002;48.812;9.180;2023-07-20T13:29:04;22.40;40.30
3976;DHT22;2002;48.812;9.180;2023-07-20T13:31:30;22.40;43.10
3976;DHT22;2002;48.812;9.180;2023-07-20T13:33:55;22.50;40.80
3976;DHT22;2002;48.812;9.180;2023-07-20T13:36:22;22.50;38.80
3976;DHT22;2002;48.812;9.180;2023-07-20T13:38:48;22.50;37.50
3976;DHT22;2002;48.812;9.180;2023-07-20T13:41:14;22.50;38.20
3976;DHT22;2002;48.812;9.180;2023-07-20T13:43:40;22.50;42.00
3976;DHT22;2002;48.812;9.180;2023-07-20T13:46:06;22.50;40.20
3976;DHT22;2002;48.812;9.180;2023-07-20T13:48:31;22.50;38.80
3976;DHT22;2002;48.812;9.180;2023-07-20T13:50:57;22.50;38.90
3976;DHT22;2002;48.812;9.180;2023-07-20T13:53:22;22.40;36.90
3976;DHT22;2002;48.812;9.180;2023-07-20T13:55:48;22.40;44.90
3976;DHT22;2002;48.812;9.180;2023-07-20T13:58:14;22.50;37.80
3976;DHT22;2002;48.812;9.180;2023-07-20T14:00:40;22.60;37.10
3976;DHT22;2002;48.812;9.180;2023-07-20T14:03:06;22.60;38.40
3976;DHT22;2002;48.812;9.180;2023-07-20T14:05:31;22.50;35.40
3976;DHT22;2002;48.812;9.180;2023-07-20T14:07:57;22.40;33.70
3976;DHT22;2002;48.812;9.180;2023-07-20T14:10:22;22.50;31.70
3976;DHT22;2002;48.812;9.180;2023-07-20T14:12:48;22.50;34.50
3976;DHT22;2002;48.812;9.180;2023-07-20T14:15:13;22.50;34.10
3976;DHT22;2002;48.812;9.180;2023-07-20T14:17:39;22.50;33.90
3976;DHT22;2002;48.812;9.180;2023-07-20T14:20:05;22.40;33.90
3976;DHT22;2002;48.812;9.180;2023-07-20T14:22:31;22.50;34.70
3976;DHT22;2002;48.812;9.180;2023-07-20T14:24:57;22.60;35.90
3976;DHT22;2002;48.812;9.180;2023-07-20T14:27:23;22.60;34.30
3976;DHT22;2002;48.812;9.180;2023-07-20T14:29:48;22.60;33.20
3976;DHT22;2002;48.812;9.180;2023-07-20T14:32:14;22.50;34.30
3976;DHT22;2002;48.812;9.180;2023-07-20T14:34:39;22.50;32.30
3976;DHT22;2002;48.812;9.180;2023-07-20T14:37:06;22.40;34.00
3976;DHT22;2002;48.812;9.180;2023-07-20T14:39:31;22.50;31.70
3976;DHT22;2002;48.812;9.180;2023-07-20T14:41:57;22.60;31.30
3976;DHT22;2002;48.812;9.180;2023-07-20T14:44:23;22.60;29.70
3976;DHT22;2002;48.812;9.180;2023-07-20T14:46:49;22.50;30.30
3976;DHT22;2002;48.812;9.180;2023-07-20T14:49:14;22.50;31.90
3976;DHT22;2002;48.812;9.180;2023-07-20T14:51:40;22.50;38.90
3976;DHT22;2002;48.812;9.180;2023-07-20T14:54:11;22.60;37.00
3976;DHT22;2002;48.812;9.180;2023-07-20T14:56:38;22.70;36.00
3976;DHT22;2002;48.812;9.180;2023-07-20T14:59:04;22.70;33.30
3976;DHT22;2002;48.812;9.180;2023-07-20T15:01:31;22.60;34.40
3976;DHT22;2002;48.812;9.180;2023-07-20T15:03:56;22.50;35.50
3976;DHT22;2002;48.812;9.180;2023-07-20T15:06:23;22.50;35.00
3976;DHT22;2002;48.812;9.180;2023-07-20T15:08:48;22.40;32.50
3976;DHT22;2002;48.812;9.180;2023-07-20T15:11:14;22.50;32.00
3976;DHT22;2002;48.812;9.180;2023-07-20T15:13:39;22.60;31.60
3976;DHT22;2002;48.812;9.180;2023-07-20T15:16:08;22.60;33.40
3976;DHT22;2002;48.812;9.180;2023-07-20T15:18:34;22.50;34.90
3976;DHT22;2002;48.812;9.180;2023-07-20T15:21:00;22.50;33.00
3976;DHT22;2002;48.812;9.180;2023-07-20T15:23:25;22.50;35.10
3976;DHT22;2002;48.812;9.180;2023-07-20T15:25:51;22.60;32.40
3976;DHT22;2002;48.812;9.180;2023-07-20T15:28:16;22.70;31.00
3976;DHT22;2002;48.812;9.180;2023-07-20T15:30:42;22.70;31.00
3976;DHT22;2002;48.812;9.180;2023-07-20T15:33:07;22.50;30.40
3976;DHT22;2002;48.812;9.180;2023-07-20T15:35:33;22.50;29.90
3976;DHT22;2002;48.812;9.180;2023-07-20T15:37:58;22.60;30.60
3976;DHT22;2002;48.812;9.180;2023-07-20T15:40:24;22.70;28.90
3976;DHT22;2002;48.812;9.180;2023-07-20T15:42:50;22.70;27.10
3976;DHT22;2002;48.812;9.180;2023-07-20T15:45:16;22.70;29.20
3976;DHT22;2002;48.812;9.180;2023-07-20T15:47:41;22.60;27.10
3976;DHT22;2002;48.812;9.180;2023-07-20T15:50:07;22.50;27.70
3976;DHT22;2002;48.812;9.180;2023-07-20T15:52:32;22.50;30.00
3976;DHT22;2002;48.812;9.180;2023-07-20T15:54:58;22.60;27.10
3976;DHT22;2002;48.812;9.180;2023-07-20T15:57:23;22.70;25.10
3976;DHT22;2002;48.812;9.180;2023-07-20T15:59:49;22.70;25.50
3976;DHT22;2002;48.812;9.180;2023-07-20T16:02:15;22.60;28.70
3976;DHT22;2002;48.812;9.180;2023-07-20T16:04:40;22.50;24.50
3976;DHT22;2002;48.812;9.180;2023-07-20T16:07:06;22.50;24.30